Aviation Digital Data Service (ADDS)

Output produced by METARs form (2022 UTC 29 September 2016)
found at http://aviationweather.gov/adds/metars/
 
KRUT 291737Z 2918/3018 12012G18KT P6SM FEW150 SCT200 
     FM300300 13012KT P6SM BKN110 
     FM301200 14010KT P6SM SCT080 BKN110 AMD LTD TO CLD VIS AND WIND